Latest Coastal Weather Observations for Samuel Hill

IDQ60701

Issued at 5:45 am EST Saturday 20 September 2014 (issued every 10 minutes, with the page automatically refreshed every 10 minutes)

About coastal observations | Map of coastal stations | Coastal observations for QLD | Marine services | Other Formats
Station Details ID: 033308 Name: SAMUEL HILL AERO Lat: -22.74 Lon: 150.66 Height: 31.0 m
Data from the previous 72 hours. | See also: Recent months at Samuel Hill
Date/Time
EST
Temp

°C
Wind Pressure Rain
since 9am
mm
Weather Cloud Vis
km
Sea
Height
m
Swell
Dir
 
Speed
knots
Gust
knots
hPa Trend Height
m
Period
s
Dir
20/05:30am 10.2 SSW 1 4 1017.7 - 0.0 - - 10 - - - -
20/05:00am 10.0 CALM 0 0 1017.0 - 0.0 - - 10 - - - -
20/04:30am 10.3 CALM 0 0 1016.8 - 0.0 - - 10 - - - -
20/04:00am 10.4 CALM 0 0 1016.6 - 0.0 - - 10 - - - -
20/03:30am 10.9 CALM 0 0 1016.6 - 0.0 - - 10 - - - -
20/03:00am 10.8 CALM 0 0 1016.7 - 0.0 - - 10 - - - -
20/02:30am 10.9 CALM 0 0 1016.9 - 0.0 - - 10 - - - -
20/02:00am 11.2 CALM 0 0 1017.2 - 0.0 - - 10 - - - -
20/01:30am 11.6 CALM 0 0 1017.5 - 0.0 - - 10 - - - -
20/01:00am 12.0 CALM 0 0 1017.7 - 0.0 - - 10 - - - -
20/12:30am 12.0 CALM 0 0 1018.0 - 0.0 - - 10 - - - -
20/12:00am 12.3 WSW 0 0 1018.4 - 0.0 - - 10 - - - -
 
Date/Time
EST
Temp

°C
Wind Pressure Rain
since 9am
mm
Weather Cloud Vis
km
Sea
Height
m
Swell
Dir
 
Speed
knots
Gust
knots
hPa Trend Height
m
Period
s
Dir
19/11:30pm 12.6 CALM 0 0 1018.5 - 0.0 - - 10 - - - -
19/11:00pm 13.6 WSW 2 5 1018.6 - 0.0 - - 10 - - - -
19/10:30pm 13.7 CALM 0 0 1018.6 - 0.0 - - 10 - - - -
19/10:00pm 14.2 WSW 1 4 1018.7 - 0.0 - - 10 - - - -
19/09:30pm 14.5 CALM 0 0 1018.7 - 0.0 - - 10 - - - -
19/09:00pm 14.7 CALM 0 0 1018.9 - 0.0 - - 10 - - - -
19/08:30pm 15.1 CALM 0 0 1018.7 - 0.0 - - 10 - - - -
19/08:00pm 15.9 CALM 0 0 1018.7 - 0.0 - - 10 - - - -
19/07:30pm 16.0 CALM 0 2 1018.4 - 0.0 - - 10 - - - -
19/07:00pm 17.1 CALM 0 0 1018.2 - 0.0 - - 10 - - - -
19/06:30pm 17.8 N 4 5 1017.7 - 0.0 - - 10 - - - -
19/06:00pm 19.6 CALM 0 0 1017.4 - 0.0 - - 10 - - - -
19/05:30pm 21.0 NNE 5 7 1017.0 - 0.0 - - 10 - - - -
19/05:00pm 22.0 NE 6 9 1016.8 - 0.0 - - 10 - - - -
19/04:30pm 22.4 ENE 7 10 1016.5 - 0.0 - Partly cloudy 10 - - - -
19/04:00pm 23.7 NE 8 11 1016.1 - 0.0 - Partly cloudy 10 - - - -
19/03:30pm 24.4 ENE 9 13 1015.9 - 0.0 - Partly cloudy 10 - - - -
19/03:00pm 23.8 NE 8 11 1016.0 - 0.0 - Cloudy 10 - - - -
19/02:30pm 23.5 E 11 17 1016.4 - 0.0 - Partly cloudy 10 - - - -
19/02:00pm 24.8 E 9 15 1016.4 - 0.0 - Partly cloudy 10 - - - -
19/01:30pm 25.3 ENE 9 16 1016.6 - 0.0 - Partly cloudy 10 - - - -
19/01:00pm 25.3 E 9 15 1017.0 - 0.0 - Partly cloudy 10 - - - -
19/12:30pm 25.6 E 8 13 1017.7 - 0.0 - - 10 - - - -
19/12:00pm 24.9 ENE 9 15 1018.4 - 0.0 - Mostly clear 10 - - - -
19/11:30am 25.4 ENE 8 12 1018.9 - 0.0 - Partly cloudy 10 - - - -
19/11:00am 24.5 E 7 11 1019.3 - 0.0 - Partly cloudy 10 - - - -
19/10:30am 25.1 SE 6 11 1019.8 - 0.0 - Partly cloudy 10 - - - -
19/10:00am 25.0 ESE 6 10 1020.2 - 0.0 - Partly cloudy 10 - - - -
19/09:30am 24.1 ENE 8 12 1020.4 - 0.0 - Partly cloudy 10 - - - -
19/09:00am 23.0 SE 6 9 1020.3 - 0.0 - Mostly clear 10 - - - -
19/08:30am 21.5 SE 6 9 1020.4 - 0.0 - - 10 - - - -
19/08:00am 18.9 SSE 5 7 1020.5 - 0.0 - - 10 - - - -
19/07:30am 14.8 CALM 0 3 1020.3 - 0.0 - Partly cloudy 10 - - - -
19/07:00am 11.0 CALM 0 0 1020.0 - 0.0 - Partly cloudy 10 - - - -
19/06:30am 9.6 CALM 0 0 1019.6 - 0.0 - Partly cloudy 10 - - - -
19/06:00am 8.6 CALM 0 0 1019.2 - 0.0 - - 10 - - - -
19/05:30am 8.3 CALM 0 0 1019.1 - 0.0 - - 10 - - - -
19/05:00am 8.2 CALM 0 0 1018.8 - 0.0 - - 10 - - - -
19/04:30am 8.5 CALM 0 0 1018.5 - 0.0 - - 10 - - - -
19/04:00am 8.8 CALM 0 0 1018.2 - 0.0 - - 10 - - - -
19/03:30am 8.8 CALM 0 0 1018.0 - 0.0 - - 10 - - - -
19/03:00am 9.5 CALM 0 0 1018.2 - 0.0 - - 10 - - - -
19/02:30am 9.4 CALM 0 0 1018.4 - 0.0 - - 10 - - - -
19/02:00am 9.3 CALM 0 0 1018.6 - 0.0 - - 10 - - - -
19/01:30am 9.4 CALM 0 0 1018.6 - 0.0 - - 10 - - - -
19/01:00am 9.6 CALM 0 0 1018.8 - 0.0 - - 10 - - - -
19/12:30am 9.9 CALM 0 0 1019.0 - 0.0 - - 10 - - - -
19/12:00am 10.3 CALM 0 0 1019.1 - 0.0 - - 10 - - - -
 
Date/Time
EST
Temp

°C
Wind Pressure Rain
since 9am
mm
Weather Cloud Vis
km
Sea
Height
m
Swell
Dir
 
Speed
knots
Gust
knots
hPa Trend Height
m
Period
s
Dir
18/11:30pm 10.4 CALM 0 0 1019.2 - 0.0 - - 10 - - - -
18/11:00pm 10.7 CALM 0 0 1019.2 - 0.0 - - 10 - - - -
18/10:30pm 10.8 CALM 0 0 1019.3 - 0.0 - - 10 - - - -
18/10:00pm 11.4 CALM 0 0 1019.1 - 0.0 - - 10 - - - -
18/09:30pm 11.6 CALM 0 0 1019.1 - 0.0 - - 10 - - - -
18/09:00pm 12.1 CALM 0 0 1018.9 - 0.0 - - 10 - - - -
18/08:30pm 13.0 CALM 0 0 1018.7 - 0.0 - - 10 - - - -
18/08:00pm 13.6 CALM 0 0 1018.2 - 0.0 - - 10 - - - -
18/07:30pm 14.1 CALM 0 3 1018.0 - 0.0 - - 10 - - - -
18/07:00pm 15.3 W 2 4 1017.6 - 0.0 - - 10 - - - -
18/06:30pm 16.9 CALM 0 0 1017.2 - 0.0 - - 10 - - - -
18/06:00pm 19.3 E 1 4 1017.0 - 0.0 - - 10 - - - -
18/05:30pm 21.7 ENE 5 8 1016.6 - 0.0 - - 10 - - - -
18/05:00pm 22.8 ENE 7 10 1016.3 - 0.0 - - 10 - - - -
18/04:30pm 23.5 E 8 12 1016.0 - 0.0 - - 10 - - - -
18/04:00pm 24.3 E 8 12 1015.8 - 0.0 - - 10 - - - -
18/03:30pm 24.6 ENE 10 13 1015.7 - 0.0 - - 10 - - - -
18/03:00pm 24.8 E 8 12 1015.7 - 0.0 - - 10 - - - -
18/02:30pm 25.0 ENE 10 15 1015.9 - 0.0 - - 10 - - - -
18/02:00pm 24.8 E 9 13 1016.4 - 0.0 - - 10 - - - -
18/01:30pm 24.9 E 9 13 1016.8 - 0.0 - - 10 - - - -
18/01:00pm 24.6 ESE 9 15 1017.2 - 0.0 - - 10 - - - -
18/12:30pm 24.9 ESE 10 17 1017.6 - 0.0 - - 10 - - - -
18/12:00pm 24.5 E 11 15 1018.1 - 0.0 - - 10 - - - -
18/11:30am 24.7 ESE 9 16 1018.5 - 0.0 - - 10 - - - -
18/11:00am 24.6 SE 10 16 1018.9 - 0.0 - - 10 - - - -
18/10:30am 24.0 ESE 12 17 1019.1 - 0.0 - - 10 - - - -
18/10:00am 23.8 SSE 12 18 1019.3 - 0.0 - - 10 - - - -
18/09:30am 23.4 SE 12 19 1019.5 - 0.0 - - 10 - - - -
18/09:00am 23.0 SSE 9 15 1019.3 - 0.2 - - 10 - - - -
18/08:30am 21.4 SSE 8 15 1019.3 - 0.2 - - 10 - - - -
18/08:00am 19.9 SSE 5 8 1018.8 - 0.2 - - 10 - - - -
18/07:30am 17.1 CALM 0 3 1018.6 - 0.2 - - 10 - - - -
18/07:23am 16.9 CALM 0 0 1018.5 - 0.2 - - 10 - - - -
18/07:14am 16.4 CALM 0 0 1018.4 - 0.2 - Partly cloudy 8 - - - -
18/07:00am 15.5 SE 1 4 1018.2 - 0.2 - Partly cloudy 0.6 - - - -
18/06:30am 13.5 CALM 0 0 1017.7 - 0.2 - Partly cloudy 0.8 - - - -
18/06:18am 12.8 SSE 1 4 1017.7 - 0.2 - Partly cloudy 0.5 - - - -
18/06:00am 12.1 CALM 0 0 1017.4 - 0.2 - - 0.5 - - - -
18/05:30am 12.6 CALM 0 0 1016.9 - 0.2 - - 0.6 - - - -
18/05:16am 12.6 CALM 0 0 1016.6 - 0.2 - - 7 - - - -
18/05:12am 12.6 CALM 0 0 1016.6 - 0.2 - - 10 - - - -
18/05:00am 13.2 CALM 0 0 1016.3 - 0.2 - - 6 - - - -
18/04:56am 13.4 CALM 0 0 1016.3 - 0.2 - - 7 - - - -
18/04:30am 15.8 WSW 5 7 1016.1 - 0.2 - - 10 - - - -
18/04:29am 15.8 W 5 7 1016.1 - 0.2 - - 10 - - - -
18/04:19am 13.5 W 3 5 1015.9 - 0.2 - Partly cloudy 7 - - - -
18/04:00am 13.6 CALM 0 3 1015.7 - 0.2 - Partly cloudy 5 - - - -
18/03:53am 13.8 S 2 3 1015.7 - 0.2 - Partly cloudy 6 - - - -
18/03:45am 13.0 S 2 5 1015.6 - 0.2 - Partly cloudy 9 - - - -
18/03:30am 12.2 CALM 0 0 1015.3 - 0.2 - - 10 - - - -
18/03:29am 12.2 CALM 0 0 1015.3 - 0.2 - - 10 - - - -
18/03:00am 12.4 CALM 0 0 1015.1 - 0.2 - - 2 - - - -
18/02:30am 12.6 CALM 0 0 1015.3 - 0.2 - - 0.3 - - - -
18/02:15am 12.6 CALM 0 0 1015.3 - 0.2 - - 7 - - - -
18/02:00am 12.6 CALM 0 0 1015.4 - 0.2 - - 10 - - - -
18/01:37am 12.6 CALM 0 0 1015.6 - 0.2 - - 10 - - - -
18/01:30am 12.6 CALM 0 0 1015.6 - 0.2 - Partly cloudy 10 - - - -
18/01:25am 12.6 CALM 0 0 1015.7 - 0.2 - Partly cloudy 5 - - - -
18/01:00am 12.9 CALM 0 0 1015.9 - 0.2 - Cloudy 0.1 - - - -
18/12:30am 13.1 CALM 0 0 1016.0 - 0.2 - Cloudy 0.5 - - - -
18/12:16am 12.9 CALM 0 0 1016.0 - 0.2 - Partly cloudy 5 - - - -
18/12:02am 12.8 CALM 0 0 1016.0 - 0.2 - Partly cloudy 10 - - - -
18/12:00am 13.0 CALM 0 0 1016.1 - 0.2 - Partly cloudy 10 - - - -
 
Date/Time
EST
Temp

°C
Wind Pressure Rain
since 9am
mm
Weather Cloud Vis
km
Sea
Height
m
Swell
Dir
 
Speed
knots
Gust
knots
hPa Trend Height
m
Period
s
Dir
17/11:30pm 13.3 CALM 0 0 1016.0 - 0.2 - - 10 - - - -
17/11:00pm 13.0 CALM 0 0 1016.1 - 0.2 - - 10 - - - -
17/10:30pm 13.6 CALM 0 0 1016.1 - 0.2 - - 10 - - - -
17/10:00pm 13.7 CALM 0 0 1016.1 - 0.2 - - 10 - - - -
17/09:30pm 14.2 CALM 0 0 1016.0 - 0.2 - - 10 - - - -
17/09:00pm 14.8 CALM 0 3 1016.0 - 0.2 - - 10 - - - -
17/08:30pm 15.4 CALM 0 0 1015.8 - 0.2 - - 10 - - - -
17/08:00pm 16.1 NW 1 4 1015.5 - 0.2 - - 10 - - - -
17/07:30pm 16.5 N 5 6 1015.2 - 0.2 - - 10 - - - -
17/07:00pm 17.5 N 3 5 1014.7 - 0.2 - - 10 - - - -
17/06:30pm 20.0 NNW 2 5 1014.3 - 0.2 - - 10 - - - -
17/06:00pm 22.4 N 5 8 1014.0 - 0.2 - - 10 - - - -
17/05:30pm 24.5 NNW 5 8 1013.6 - 0.2 - - 10 - - - -
17/05:00pm 25.7 NNW 8 11 1013.4 - 0.2 - - 10 - - - -
17/04:30pm 26.2 NNW 11 18 1013.2 - 0.2 - - 10 - - - -
17/04:00pm 27.6 NNW 9 13 1012.9 - 0.2 - - 10 - - - -
17/03:30pm 28.0 NNW 9 13 1012.8 - 0.2 - - 10 - - - -
17/03:00pm 28.5 N 9 16 1012.9 - 0.2 - - 10 - - - -
17/02:30pm 28.2 NW 11 14 1013.0 - 0.2 - - 10 - - - -
17/02:00pm 28.7 N 9 13 1013.4 - 0.2 - - 10 - - - -
17/01:30pm 28.4 N 8 11 1013.9 - 0.2 - - 10 - - - -
17/01:00pm 28.0 NNW 8 11 1014.4 - 0.2 - - 10 - - - -
17/12:30pm 27.4 N 11 14 1015.0 - 0.2 - - 10 - - - -
17/12:00pm 27.4 N 9 13 1015.5 - 0.2 - - 10 - - - -
17/11:30am 27.7 NW 5 11 1015.8 - 0.2 - - 10 - - - -
17/11:00am 26.1 NNW 6 9 1016.4 - 0.2 - - 10 - - - -
17/10:30am 25.7 NNW 6 10 1016.9 - 0.2 - - 10 - - - -
17/10:00am 23.9 N 4 7 1017.1 - 0.2 - - 10 - - - -
17/09:30am 23.1 WSW 5 8 1017.6 - 0.0 - - 10 - - - -
17/09:00am 22.8 NNW 7 9 1017.7 - 0.0 - - 10 - - - -
17/08:30am 21.2 W 5 6 1017.7 - 0.0 - Partly cloudy 10 - - - -
17/08:00am 19.3 WSW 5 7 1017.7 - 0.0 - Partly cloudy 10 - - - -
17/07:43am 18.4 W 1 5 1017.6 - 0.0 - Partly cloudy 10 - - - -
17/07:42am 18.2 W 1 5 1017.6 - 0.0 - Partly cloudy 10 - - - -
17/07:30am 16.7 SSW 4 9 1017.5 - 0.0 - Partly cloudy 3 - - - -
17/07:00am 12.9 CALM 0 0 1016.4 - 0.0 - Cloudy 0.2 - - - -
17/06:30am 11.6 CALM 0 0 1016.3 - 0.0 - Partly cloudy 0.5 - - - -
17/06:00am 10.8 CALM 0 0 1015.8 - 0.0 - Cloudy 0.2 - - - -

Other Formats:

Comma delimited format used in spreadsheet applications
http://www.bom.gov.au/fwo/IDQ60701/IDQ60701.94370.axf

JavaScript Object Notation format (JSON) in row-major order
http://www.bom.gov.au/fwo/IDQ60701/IDQ60701.94370.json